Time;durP1;ratioP1;P1;durP2;ratioP2;P2;SDS_P1;SDS_P2;PMS_P1;PMS_P2;Temp;Humidity;BMP_temperature;BMP_pressure;BME280_temperature;BME280_humidity;BME280_pressure;Samples;Min_cycle;Max_cycle;Signal;HPM_P1;HPM_P2
2024/02/23 00:00:27;;;;;;;3.42;0.68;;;9.20;99.90;;;-148.53;100.00;63986.66;5014732;28;20049;-79
2024/02/23 00:02:56;;;;;;;4.43;0.80;;;9.20;99.90;;;-148.53;100.00;63986.66;5019798;28;20489;-79
2024/02/23 00:05:22;;;;;;;2.47;0.70;;;9.20;99.90;;;-148.53;100.00;63986.66;5024508;28;20049;-79
2024/02/23 00:07:47;;;;;;;4.97;0.82;;;9.20;99.90;;;-148.53;100.00;63986.66;5030813;28;20046;-80
2024/02/23 00:10:13;;;;;;;2.50;0.52;;;9.10;99.90;;;-148.53;100.00;63986.66;5028215;28;20037;-78
2024/02/23 00:12:39;;;;;;;1.45;0.47;;;9.10;99.90;;;-148.53;100.00;63986.66;5039277;28;20113;-79
2024/02/23 00:15:05;;;;;;;4.05;0.73;;;9.10;99.90;;;-148.53;100.00;63986.66;5021910;28;20400;-80
2024/02/23 00:17:31;;;;;;;2.40;0.63;;;9.00;99.90;;;-148.53;100.00;63986.66;5018138;28;20045;-80
2024/02/23 00:19:57;;;;;;;4.03;0.70;;;9.10;99.90;;;-148.53;100.00;63986.66;5014148;28;20110;-80
2024/02/23 00:22:22;;;;;;;2.80;0.50;;;9.10;99.90;;;-148.53;100.00;63986.66;5035878;28;20041;-79
2024/02/23 00:24:48;;;;;;;4.03;0.55;;;9.10;99.90;;;-148.53;100.00;63986.66;5020080;28;20366;-79
2024/02/23 00:27:14;;;;;;;3.05;0.60;;;9.00;99.90;;;-148.53;100.00;63986.66;5028197;28;20056;-79
2024/02/23 00:29:40;;;;;;;1.65;0.57;;;9.00;99.90;;;-148.53;100.00;63986.66;5019659;28;20041;-79
2024/02/23 00:32:06;;;;;;;3.35;0.63;;;9.10;99.90;;;-148.53;100.00;63986.66;5026712;28;20408;-79
2024/02/23 00:34:32;;;;;;;3.72;0.82;;;9.20;99.90;;;-148.53;100.00;63986.66;5025988;28;20048;-78
2024/02/23 00:36:58;;;;;;;2.88;0.60;;;9.20;99.90;;;-148.53;100.00;63986.66;5033786;28;20045;-78
2024/02/23 00:39:23;;;;;;;4.10;0.60;;;9.20;99.90;;;-148.53;100.00;63986.66;5015738;28;20038;-79
2024/02/23 00:41:49;;;;;;;3.58;0.55;;;9.20;99.90;;;-148.53;100.00;63986.66;5014320;28;20092;-78
2024/02/23 00:44:15;;;;;;;2.38;0.40;;;9.10;99.90;;;-148.53;100.00;63986.66;5016771;28;20044;-79
2024/02/23 00:46:41;;;;;;;3.83;0.80;;;9.10;99.90;;;-148.53;100.00;63986.66;5024199;28;20207;-79
2024/02/23 00:49:06;;;;;;;4.57;0.80;;;9.20;99.90;;;-148.53;100.00;63986.66;5020349;28;20037;-80
2024/02/23 00:51:32;;;;;;;3.05;0.90;;;9.20;99.90;;;-148.53;100.00;63986.66;5012310;28;20041;-79
2024/02/23 00:53:59;;;;;;;1.85;0.55;;;9.20;99.90;;;-148.53;100.00;63986.66;5021777;28;20048;-81
2024/02/23 00:56:25;;;;;;;5.57;0.60;;;9.20;99.90;;;-148.53;100.00;63986.66;5034366;28;20034;-79
2024/02/23 00:58:51;;;;;;;4.35;0.60;;;9.20;99.90;;;-148.53;100.00;63986.66;5022443;28;20045;-82
2024/02/23 01:01:17;;;;;;;2.72;0.50;;;9.20;99.90;;;-148.53;100.00;63986.66;5025631;28;20036;-79
2024/02/23 01:03:43;;;;;;;2.33;0.60;;;9.10;99.90;;;-148.53;100.00;63986.66;5015791;28;20059;-80
2024/02/23 01:06:08;;;;;;;2.53;0.50;;;9.10;99.90;;;-148.53;100.00;63986.66;5022304;28;20045;-80
2024/02/23 01:08:35;;;;;;;1.85;0.47;;;9.10;99.90;;;-148.53;100.00;63986.66;5025262;28;20042;-79
2024/02/23 01:11:01;;;;;;;2.75;0.50;;;9.10;99.90;;;-148.53;100.00;63986.66;5034623;28;20034;-80
2024/02/23 01:13:27;;;;;;;1.42;0.60;;;9.20;99.90;;;-148.53;100.00;63986.66;5019276;28;20480;-81
2024/02/23 01:15:53;;;;;;;2.85;0.55;;;9.10;99.90;;;-148.53;100.00;63986.66;5015528;28;20440;-79
2024/02/23 01:18:19;;;;;;;1.00;0.43;;;9.10;99.90;;;-148.53;100.00;63986.66;5015712;28;20048;-79
2024/02/23 01:20:45;;;;;;;1.75;0.50;;;9.10;99.90;;;-148.53;100.00;63986.66;5017663;28;20030;-80
2024/02/23 01:23:11;;;;;;;2.47;0.50;;;9.00;99.90;;;-148.53;100.00;63986.66;5016501;28;20049;-79
2024/02/23 01:25:37;;;;;;;2.83;0.47;;;8.90;99.90;;;-148.53;100.00;63986.66;5015946;28;20196;-79
2024/02/23 01:28:03;;;;;;;0.93;0.20;;;8.80;99.90;;;-148.53;100.00;63986.66;5024604;28;20060;-79
2024/02/23 01:30:29;;;;;;;1.58;0.25;;;8.80;99.90;;;-148.53;100.00;63986.66;5028884;28;20042;-80
2024/02/23 01:32:55;;;;;;;0.77;0.20;;;8.70;99.90;;;-148.53;100.00;63986.66;5028156;28;20034;-78
2024/02/23 01:35:20;;;;;;;0.80;0.30;;;8.70;99.90;;;-148.53;100.00;63986.66;5021160;28;20052;-78
2024/02/23 01:37:46;;;;;;;0.60;0.30;;;8.60;99.90;;;-148.53;100.00;63986.66;5037055;28;20037;-79
2024/02/23 01:40:12;;;;;;;1.60;0.20;;;8.50;99.90;;;-148.53;100.00;63986.66;5024248;28;20448;-79
2024/02/23 01:42:38;;;;;;;1.55;0.40;;;;;;;-148.53;100.00;63986.66;5037814;28;20050;-78
2024/02/23 01:45:05;;;;;;;0.75;0.20;;;8.40;99.90;;;-148.53;100.00;63986.66;5026941;28;20031;-78
2024/02/23 01:47:31;;;;;;;0.73;0.20;;;8.00;99.90;;;-148.53;100.00;63986.66;5029637;28;20938;-79
2024/02/23 01:49:59;;;;;;;0.80;0.20;;;7.60;99.90;;;-148.53;100.00;63986.66;5014270;28;20091;-79
2024/02/23 01:52:25;;;;;;;1.08;0.30;;;7.50;99.90;;;-148.53;100.00;63986.66;5022314;28;20045;-79
2024/02/23 01:54:53;;;;;;;1.52;0.28;;;7.40;99.90;;;-148.53;100.00;63986.66;5017002;28;20052;-79
2024/02/23 01:57:21;;;;;;;;;;;7.40;99.90;;;-148.53;100.00;63986.66;5022704;28;20034;-79
2024/02/23 01:59:48;;;;;;;1.00;0.30;;;7.30;99.90;;;-148.53;100.00;63986.66;5020147;28;19917;-81
2024/02/23 02:02:14;;;;;;;0.50;0.30;;;7.10;99.90;;;-148.53;100.00;63986.66;5019599;28;20038;-78
2024/02/23 02:04:40;;;;;;;0.40;0.17;;;6.80;99.90;;;-148.53;100.00;63986.66;5028706;28;20053;-78
2024/02/23 02:07:06;;;;;;;0.10;0.10;;;6.80;99.90;;;-148.53;100.00;63986.66;5016774;28;20409;-79
2024/02/23 02:09:32;;;;;;;0.28;0.17;;;6.70;99.90;;;-148.53;100.00;63986.66;5020539;28;20042;-78
2024/02/23 02:11:58;;;;;;;0.55;0.35;;;6.70;99.90;;;-148.53;100.00;63986.66;5027406;28;20030;-79
2024/02/23 02:14:24;;;;;;;0.50;0.20;;;6.50;99.90;;;-148.53;100.00;63986.66;5017254;28;20034;-78
2024/02/23 02:16:49;;;;;;;0.40;0.40;;;6.40;99.90;;;-148.53;100.00;63986.66;5022673;28;20861;-78
2024/02/23 02:19:15;;;;;;;0.20;0.10;;;6.30;99.90;;;-148.53;100.00;63986.66;5026999;28;20037;-79
2024/02/23 02:21:41;;;;;;;0.38;0.10;;;6.20;99.90;;;-148.53;100.00;63986.66;5022124;28;20042;-78
2024/02/23 02:24:07;;;;;;;0.88;0.10;;;6.10;99.90;;;-148.53;100.00;63986.66;5021635;28;20478;-78
2024/02/23 02:26:35;;;;;;;1.27;0.10;;;6.00;99.90;;;-148.53;100.00;63986.66;5025991;28;20120;-79
2024/02/23 02:29:01;;;;;;;0.10;0.10;;;6.00;99.90;;;-148.53;100.00;63986.66;5029800;28;20041;-80
2024/02/23 02:31:26;;;;;;;0.08;0.00;;;5.90;99.90;;;-148.53;100.00;63986.66;5039500;28;20377;-78
2024/02/23 02:33:52;;;;;;;0.52;0.10;;;5.90;99.90;;;-148.53;100.00;63986.66;5026700;28;20046;-79
2024/02/23 02:36:18;;;;;;;1.00;0.20;;;5.80;99.90;;;-148.53;100.00;63986.66;5024470;28;20099;-78
2024/02/23 02:38:44;;;;;;;0.20;0.10;;;5.80;99.90;;;-148.53;100.00;63986.66;5036947;28;20049;-78
2024/02/23 02:41:09;;;;;;;0.00;0.00;;;5.90;99.90;;;-148.53;100.00;63986.66;5028072;28;20025;-80
2024/02/23 02:43:36;;;;;;;0.00;0.00;;;5.90;99.90;;;-148.53;100.00;63986.66;5020780;28;20044;-81
2024/02/23 02:46:02;;;;;;;0.88;0.13;;;5.90;99.90;;;-148.53;100.00;63986.66;5022611;28;20022;-80
2024/02/23 02:48:27;;;;;;;0.75;0.10;;;5.80;99.90;;;-148.53;100.00;63986.66;5041679;28;20036;-79
2024/02/23 02:50:53;;;;;;;0.00;0.00;;;5.90;99.90;;;-148.53;100.00;63986.66;5024355;28;20040;-79
2024/02/23 02:53:19;;;;;;;0.30;0.10;;;5.90;99.90;;;-148.53;100.00;63986.66;5015872;28;20041;-80
2024/02/23 02:55:45;;;;;;;0.10;0.08;;;5.90;99.90;;;-148.53;100.00;63986.66;5015875;28;20412;-80
2024/02/23 02:58:14;;;;;;;1.23;0.28;;;6.00;99.90;;;-148.53;100.00;63986.66;5034689;28;20048;-81
2024/02/23 03:00:40;;;;;;;0.32;0.15;;;6.00;99.90;;;-148.53;100.00;63986.66;5015826;28;20037;-80
2024/02/23 03:03:06;;;;;;;0.38;0.20;;;6.00;99.90;;;-148.53;100.00;63986.66;5039971;28;20407;-78
2024/02/23 03:05:32;;;;;;;0.20;0.10;;;6.10;99.90;;;-148.53;100.00;63986.66;5032484;28;20049;-81
2024/02/23 03:07:57;;;;;;;1.98;0.38;;;6.10;99.90;;;-148.53;100.00;63986.66;5017793;28;20132;-81
2024/02/23 03:10:23;;;;;;;0.82;0.30;;;6.10;99.90;;;-148.53;100.00;63986.66;5019919;28;20041;-80
2024/02/23 03:12:49;;;;;;;0.73;0.15;;;6.00;99.90;;;-148.53;100.00;63986.66;5020392;28;20798;-80
2024/02/23 03:15:15;;;;;;;1.20;0.20;;;6.00;99.90;;;-148.53;100.00;63986.66;5016970;28;20179;-80
2024/02/23 03:17:40;;;;;;;0.17;0.17;;;5.90;99.90;;;-148.53;100.00;63986.66;5035126;28;20037;-80
2024/02/23 03:20:10;;;;;;;0.20;0.20;;;5.80;99.90;;;-148.53;100.00;63986.66;5023654;28;20088;-80
2024/02/23 03:22:37;;;;;;;0.80;0.30;;;5.80;99.90;;;-148.53;100.00;63986.66;5029106;28;20393;-79
2024/02/23 03:25:08;;;;;;;0.68;0.30;;;5.80;99.90;;;-148.53;100.00;63986.66;5021156;28;20064;-80
2024/02/23 03:27:37;;;;;;;2.70;0.50;;;5.80;99.90;;;-148.53;100.00;63986.66;5019748;28;20509;-80
2024/02/23 03:30:09;;;;;;;1.75;0.30;;;5.80;99.90;;;-148.53;100.00;63986.66;5030604;28;20117;-80
2024/02/23 03:32:38;;;;;;;1.00;0.40;;;5.80;99.90;;;-148.53;100.00;63986.66;5026225;28;20033;-78
2024/02/23 03:35:06;;;;;;;1.50;0.57;;;5.80;99.90;;;-148.53;100.00;63986.66;5023114;28;20033;-80
2024/02/23 03:37:32;;;;;;;2.17;0.70;;;5.80;99.90;;;-148.53;100.00;63986.66;5022644;28;20034;-80
2024/02/23 03:39:59;;;;;;;2.53;0.90;;;5.80;99.90;;;-148.53;100.00;63986.66;5019285;28;20034;-80
2024/02/23 03:42:26;;;;;;;1.85;0.52;;;5.80;99.90;;;-148.53;100.00;63986.66;5022369;28;20453;-80
2024/02/23 03:44:52;;;;;;;2.08;0.70;;;5.80;99.90;;;-148.53;100.00;63986.66;5042643;28;20048;-80
2024/02/23 03:47:17;;;;;;;2.80;0.60;;;5.80;99.90;;;-148.53;100.00;63986.66;5021120;28;20038;-79
2024/02/23 03:49:43;;;;;;;4.90;0.80;;;5.80;99.90;;;-148.53;100.00;63986.66;5015053;28;20041;-78
2024/02/23 03:52:09;;;;;;;3.00;0.63;;;5.80;99.90;;;-148.53;100.00;63986.66;5021200;28;20474;-80
2024/02/23 03:54:34;;;;;;;1.80;0.60;;;5.80;99.90;;;-148.53;100.00;63986.66;5019294;28;20049;-79
2024/02/23 03:57:00;;;;;;;3.45;0.70;;;5.80;99.90;;;-148.53;100.00;63986.66;5014968;28;20493;-80
2024/02/23 03:59:26;;;;;;;3.17;0.70;;;5.80;99.90;;;-148.53;100.00;63986.66;5014557;28;20045;-79
2024/02/23 04:01:51;;;;;;;1.65;0.50;;;5.70;99.90;;;-148.53;100.00;63986.66;5023496;28;20034;-79
2024/02/23 04:04:17;;;;;;;1.83;0.60;;;5.80;99.90;;;-148.53;100.00;63986.66;5025866;28;20386;-80
2024/02/23 04:06:43;;;;;;;3.40;0.90;;;5.80;99.90;;;-148.53;100.00;63986.66;5025856;28;20037;-79
2024/02/23 04:09:09;;;;;;;2.40;1.88;;;5.80;99.90;;;-148.53;100.00;63986.66;5026325;28;20481;-78
2024/02/23 04:11:35;;;;;;;2.75;1.00;;;5.90;99.90;;;-148.53;100.00;63986.66;5025470;28;20036;-79
2024/02/23 04:14:01;;;;;;;3.35;1.17;;;6.00;99.90;;;-148.53;100.00;63986.66;5016740;28;20041;-80
2024/02/23 04:16:27;;;;;;;1.60;0.90;;;6.00;99.90;;;-148.53;100.00;63986.66;5020756;28;20041;-79
2024/02/23 04:18:54;;;;;;;3.75;0.90;;;6.00;99.90;;;-148.53;100.00;63986.66;5025373;28;20033;-79
2024/02/23 04:21:20;;;;;;;1.83;0.60;;;5.90;99.90;;;-148.53;100.00;63986.66;5017474;28;20049;-80
2024/02/23 04:23:46;;;;;;;3.22;0.90;;;5.90;99.90;;;-148.53;100.00;63986.66;5020929;28;20066;-80
2024/02/23 04:26:12;;;;;;;3.83;0.82;;;5.90;99.90;;;-148.53;100.00;63986.66;5028517;28;20076;-80
2024/02/23 04:28:42;;;;;;;3.85;1.25;;;6.00;99.90;;;-148.53;100.00;63986.66;5029599;28;20052;-80
2024/02/23 04:31:09;;;;;;;3.35;1.00;;;6.10;99.90;;;-148.53;100.00;63986.66;5015090;28;20105;-80
2024/02/23 04:33:36;;;;;;;4.35;1.08;;;6.10;99.90;;;-148.53;100.00;63986.66;5014997;28;20436;-79
2024/02/23 04:36:04;;;;;;;5.55;1.85;;;6.10;99.90;;;-148.53;100.00;63986.66;5023489;28;20040;-80
2024/02/23 04:38:30;;;;;;;5.65;1.50;;;6.00;99.90;;;-148.53;100.00;63986.66;5024006;28;20389;-79
2024/02/23 04:40:56;;;;;;;3.03;0.98;;;5.90;99.90;;;-148.53;100.00;63986.66;5017850;28;20108;-80
2024/02/23 04:43:24;;;;;;;3.58;1.20;;;5.90;99.90;;;-148.53;100.00;63986.66;5020057;28;20132;-79
2024/02/23 04:45:49;;;;;;;3.30;0.93;;;5.90;99.90;;;-148.53;100.00;63986.66;5026820;28;20112;-80
2024/02/23 04:48:15;;;;;;;2.95;1.10;;;6.00;99.90;;;-148.53;100.00;63986.66;5033898;28;20033;-80
2024/02/23 04:50:41;;;;;;;6.90;1.10;;;6.10;99.90;;;-148.53;100.00;63986.66;5013950;28;20068;-79
2024/02/23 04:53:07;;;;;;;5.03;0.90;;;6.10;99.90;;;-148.53;100.00;63986.66;5013371;28;20462;-80
2024/02/23 04:55:33;;;;;;;3.42;1.10;;;6.10;99.90;;;-148.53;100.00;63986.66;5032891;28;20038;-79
2024/02/23 04:57:59;;;;;;;2.47;0.90;;;6.10;99.90;;;-148.53;100.00;63986.66;5028452;28;20056;-79
2024/02/23 05:00:28;;;;;;;3.25;1.00;;;6.10;99.90;;;-148.53;100.00;63986.66;5013763;28;20106;-79
2024/02/23 05:02:54;;;;;;;2.65;0.88;;;6.20;99.90;;;-148.53;100.00;63986.66;5029594;28;20489;-78
2024/02/23 05:05:21;;;;;;;2.90;1.02;;;6.10;99.90;;;-148.53;100.00;63986.66;5026396;28;20041;-77
2024/02/23 05:07:48;;;;;;;2.13;0.85;;;6.10;99.90;;;-148.53;100.00;63986.66;5018629;28;20401;-78
2024/02/23 05:10:15;;;;;;;2.25;0.65;;;6.10;99.90;;;-148.53;100.00;63986.66;5016390;28;20030;-78
2024/02/23 05:12:40;;;;;;;5.18;0.80;;;6.00;99.90;;;-148.53;100.00;63986.66;5013420;28;20038;-77
2024/02/23 05:15:07;;;;;;;2.35;0.80;;;6.00;99.90;;;-148.53;100.00;63986.66;5020925;28;20044;-77
2024/02/23 05:17:32;;;;;;;5.25;1.27;;;6.00;99.90;;;-148.53;100.00;63986.66;5015567;28;20034;-77
2024/02/23 05:19:58;;;;;;;1.38;0.70;;;6.00;99.90;;;-148.53;100.00;63986.66;5024847;28;20046;-78
2024/02/23 05:22:24;;;;;;;2.50;0.88;;;6.00;99.90;;;-148.53;100.00;63986.66;5029655;28;20042;-78
2024/02/23 05:24:49;;;;;;;1.55;0.70;;;6.00;99.90;;;-148.53;100.00;63986.66;5019501;28;20037;-77
2024/02/23 05:27:15;;;;;;;2.25;0.75;;;6.00;99.90;;;-148.53;100.00;63986.66;5019618;28;20037;-77
2024/02/23 05:29:41;;;;;;;4.07;0.73;;;6.00;99.90;;;-148.53;100.00;63986.66;5012888;28;20050;-76
2024/02/23 05:32:07;;;;;;;4.00;0.93;;;6.00;99.90;;;-148.53;100.00;63986.66;5013165;28;20033;-76
2024/02/23 05:34:32;;;;;;;2.72;0.75;;;5.90;99.90;;;-148.53;100.00;63986.66;5012929;28;20091;-77
2024/02/23 05:36:58;;;;;;;4.75;0.77;;;5.90;99.90;;;-148.53;100.00;63986.66;5013032;28;20034;-76
2024/02/23 05:39:24;;;;;;;2.72;0.80;;;5.90;99.90;;;-148.53;100.00;63986.66;5012860;28;20410;-76
2024/02/23 05:41:49;;;;;;;5.32;0.70;;;5.90;99.90;;;-148.53;100.00;63986.66;5012926;28;20763;-77
2024/02/23 05:44:15;;;;;;;3.90;0.80;;;5.90;99.90;;;-148.53;100.00;63986.66;5018089;28;20040;-77
2024/02/23 05:46:43;;;;;;;5.70;1.05;;;5.90;99.90;;;-148.53;100.00;63986.66;5026436;28;20060;-77
2024/02/23 05:49:09;;;;;;;3.13;0.80;;;5.80;99.90;;;-148.53;100.00;63986.66;5022855;28;20536;-78
2024/02/23 05:51:35;;;;;;;3.10;0.65;;;5.90;99.90;;;-148.53;100.00;63986.66;5017993;28;20034;-76
2024/02/23 05:54:01;;;;;;;4.53;0.98;;;5.90;99.90;;;-148.53;100.00;63986.66;5023985;28;20091;-77
2024/02/23 05:56:26;;;;;;;2.08;0.60;;;5.90;99.90;;;-148.53;100.00;63986.66;5013381;28;20042;-77
2024/02/23 05:58:52;;;;;;;1.95;0.63;;;6.00;99.90;;;-148.53;100.00;63986.66;5012672;28;20046;-77
2024/02/23 06:01:18;;;;;;;2.90;0.88;;;6.00;99.90;;;-148.53;100.00;63986.66;5023813;28;20095;-76
2024/02/23 06:03:45;;;;;;;4.30;0.80;;;6.00;99.90;;;-148.53;100.00;63986.66;5018418;28;20057;-77
2024/02/23 06:06:11;;;;;;;3.65;0.70;;;6.00;99.90;;;-148.53;100.00;63986.66;5018129;28;20069;-77
2024/02/23 06:08:37;;;;;;;6.20;0.90;;;6.00;99.90;;;-148.53;100.00;63986.66;5019717;28;20040;-76
2024/02/23 06:11:03;;;;;;;4.15;0.90;;;6.00;99.90;;;-148.53;100.00;63986.66;5017295;28;20033;-78
2024/02/23 06:13:33;;;;;;;4.57;0.90;;;6.10;99.90;;;-148.53;100.00;63986.66;5027013;28;20037;-78
2024/02/23 06:15:59;;;;;;;7.05;1.17;;;6.00;99.90;;;-148.53;100.00;63986.66;5015778;28;20206;-76
2024/02/23 06:18:25;;;;;;;4.85;0.70;;;6.00;99.90;;;-148.53;100.00;63986.66;5027058;28;20045;-77
2024/02/23 06:20:51;;;;;;;4.43;0.90;;;6.10;99.90;;;-148.53;100.00;63986.66;5022667;28;20370;-75
2024/02/23 06:23:17;;;;;;;3.15;0.80;;;6.10;99.90;;;-148.53;100.00;63986.66;5032650;28;20121;-76
2024/02/23 06:25:46;;;;;;;4.47;1.00;;;6.10;99.90;;;-148.53;100.00;63986.66;5011293;28;20227;-75
2024/02/23 06:28:11;;;;;;;5.10;0.70;;;6.00;99.90;;;-148.53;100.00;63986.66;5022753;28;20128;-76
2024/02/23 06:30:37;;;;;;;4.78;0.80;;;6.10;99.90;;;-148.53;100.00;63986.66;5035697;28;20456;-76
2024/02/23 06:33:04;;;;;;;4.28;0.88;;;6.10;99.90;;;-148.53;100.00;63986.66;5017748;28;20042;-76
2024/02/23 06:35:30;;;;;;;6.28;0.80;;;6.20;99.90;;;-148.53;100.00;63986.66;5011065;28;20109;-75
2024/02/23 06:37:56;;;;;;;3.40;1.00;;;6.20;99.90;;;-148.53;100.00;63986.66;5023601;28;20034;-76
2024/02/23 06:40:22;;;;;;;4.10;0.77;;;6.20;99.90;;;-148.53;100.00;63986.66;5012157;28;20120;-76
2024/02/23 06:42:48;;;;;;;3.63;1.40;;;6.30;99.90;;;-148.53;100.00;63986.66;5022118;28;20041;-75
2024/02/23 06:45:14;;;;;;;3.80;1.23;;;6.30;99.90;;;-148.53;100.00;63986.66;5024119;28;20400;-76
2024/02/23 06:47:40;;;;;;;4.22;0.88;;;6.30;99.90;;;-148.53;100.00;63986.66;5025712;28;20034;-76
2024/02/23 06:50:06;;;;;;;2.00;1.00;;;6.30;99.90;;;-148.53;100.00;63986.66;5022218;28;20041;-75
2024/02/23 06:52:33;;;;;;;4.10;1.00;;;6.30;99.90;;;-148.53;100.00;63986.66;5015985;28;20037;-76
2024/02/23 06:54:59;;;;;;;5.80;1.00;;;6.30;99.90;;;-148.53;100.00;63986.66;5031720;28;20096;-76
2024/02/23 06:57:25;;;;;;;3.85;1.00;;;6.30;99.90;;;-148.53;100.00;63986.66;5018560;28;20033;-76
2024/02/23 06:59:52;;;;;;;3.65;0.98;;;6.30;99.90;;;-148.53;100.00;63986.66;5020986;28;20040;-76
2024/02/23 07:02:18;;;;;;;4.32;1.00;;;6.30;99.90;;;-148.53;100.00;63986.66;5021400;28;20038;-75
2024/02/23 07:04:43;;;;;;;4.10;1.08;;;6.30;99.90;;;-148.53;100.00;63986.66;5033717;28;20056;-76
2024/02/23 07:07:11;;;;;;;4.25;0.80;;;6.40;99.90;;;-148.53;100.00;63986.66;5019239;28;20030;-76
2024/02/23 07:09:37;;;;;;;4.55;1.02;;;6.40;99.90;;;-148.53;100.00;63986.66;5035360;28;20056;-76
2024/02/23 07:12:03;;;;;;;3.08;0.65;;;6.40;99.90;;;-148.53;100.00;63986.66;5030866;28;20118;-75
2024/02/23 07:14:29;;;;;;;4.03;0.80;;;6.50;99.90;;;-148.53;100.00;63986.66;5030725;28;20042;-77
2024/02/23 07:16:54;;;;;;;3.22;1.00;;;6.50;99.90;;;-148.53;100.00;63986.66;5020534;28;20070;-77
2024/02/23 07:19:20;;;;;;;4.07;0.77;;;6.50;99.90;;;-148.53;100.00;63986.66;5015743;28;20489;-77
2024/02/23 07:21:46;;;;;;;2.53;0.82;;;6.60;99.90;;;-148.53;100.00;63986.66;5015416;28;20037;-77
2024/02/23 07:24:13;;;;;;;6.90;1.02;;;6.60;99.90;;;-148.53;100.00;63986.66;5024883;28;20548;-76
2024/02/23 07:26:38;;;;;;;5.60;1.10;;;6.70;99.90;;;-148.53;100.00;63986.66;5027362;28;20037;-77
2024/02/23 07:29:04;;;;;;;6.47;0.90;;;6.70;99.90;;;-148.53;100.00;63986.66;5026331;28;20481;-77
2024/02/23 07:31:30;;;;;;;4.57;0.70;;;6.70;99.90;;;-148.53;100.00;63986.66;5025533;28;20111;-76
2024/02/23 07:33:55;;;;;;;3.40;0.77;;;6.70;99.90;;;-148.53;100.00;63986.66;5035056;28;20047;-77
2024/02/23 07:36:21;;;;;;;6.55;0.70;;;6.70;99.90;;;-148.53;100.00;63986.66;5023879;28;20040;-76
2024/02/23 07:38:47;;;;;;;3.22;0.70;;;6.70;99.90;;;-148.53;100.00;63986.66;5015255;28;20049;-76
2024/02/23 07:41:15;;;;;;;4.82;0.75;;;6.80;99.90;;;-148.53;100.00;63986.66;5020252;28;20099;-77
2024/02/23 07:43:40;;;;;;;5.33;0.80;;;6.80;99.90;;;-148.53;100.00;63986.66;5017920;28;20674;-77
2024/02/23 07:46:08;;;;;;;4.38;0.88;;;6.80;99.90;;;-148.53;100.00;63986.66;5024329;28;20299;-76
2024/02/23 07:48:35;;;;;;;4.15;0.90;;;6.80;99.90;;;-148.53;100.00;63986.66;5018188;28;20121;-76
2024/02/23 07:51:03;;;;;;;4.10;1.17;;;6.80;99.90;;;-148.53;100.00;63986.66;5022519;28;20401;-75
2024/02/23 07:53:29;;;;;;;3.03;0.82;;;6.80;99.90;;;-148.53;100.00;63986.66;5030216;28;20314;-77
2024/02/23 07:55:54;;;;;;;4.85;0.80;;;6.80;99.90;;;-148.53;100.00;63986.66;5016254;28;20037;-77
2024/02/23 07:58:21;;;;;;;3.17;0.52;;;6.80;99.90;;;-148.53;100.00;63986.66;5027347;28;20033;-77
2024/02/23 08:00:47;;;;;;;2.15;0.40;;;6.80;99.90;;;-148.53;100.00;63986.66;5028839;28;20084;-76
2024/02/23 08:03:13;;;;;;;5.43;0.73;;;6.80;99.90;;;-148.53;100.00;63986.66;5023364;28;20053;-77
2024/02/23 08:05:38;;;;;;;4.88;1.05;;;6.90;99.90;;;-148.53;100.00;63986.66;5017400;28;20041;-77
2024/02/23 08:08:06;;;;;;;3.78;0.50;;;6.80;99.90;;;-148.53;100.00;63986.66;5028940;28;20045;-77
2024/02/23 08:10:32;;;;;;;;;;;6.90;99.90;;;-148.53;100.00;63986.66;5017805;28;20044;-77
2024/02/23 08:12:59;;;;;;;1.60;0.52;;;7.00;99.90;;;-148.53;100.00;63986.66;5030249;28;19956;-77
2024/02/23 08:15:24;;;;;;;3.50;0.65;;;7.00;99.90;;;-148.53;100.00;63986.66;5036155;28;20044;-76
2024/02/23 08:17:50;;;;;;;5.38;1.08;;;7.10;99.90;;;-148.53;100.00;63986.66;5024689;28;20796;-76
2024/02/23 08:20:16;;;;;;;6.32;1.30;;;7.20;99.90;;;-148.53;100.00;63986.66;5019750;28;20040;-76
2024/02/23 08:22:42;;;;;;;6.13;1.63;;;7.30;99.90;;;-148.53;100.00;63986.66;5014491;28;20026;-76
2024/02/23 08:25:08;;;;;;;4.18;0.47;;;7.40;99.90;;;-148.53;100.00;63986.66;5031607;28;20052;-76
2024/02/23 08:27:34;;;;;;;4.97;0.70;;;7.50;99.90;;;-148.53;100.00;63986.66;5019474;28;20042;-75
2024/02/23 08:29:59;;;;;;;5.75;0.75;;;7.60;99.90;;;-148.53;100.00;63986.66;5023214;28;20042;-75
2024/02/23 08:32:25;;;;;;;2.85;0.80;;;7.80;99.90;;;-148.53;100.00;63986.66;5021619;28;20442;-75
2024/02/23 08:34:52;;;;;;;4.03;0.70;;;7.80;99.90;;;-148.53;100.00;63986.66;5027443;28;20400;-75
2024/02/23 08:37:19;;;;;;;4.20;0.73;;;7.90;99.90;;;-148.53;100.00;63986.66;5014232;28;20053;-75
2024/02/23 08:39:44;;;;;;;3.42;0.60;;;7.90;99.90;;;-148.53;100.00;63986.66;5035468;28;20034;-75
2024/02/23 08:42:10;;;;;;;4.07;0.70;;;7.70;99.90;;;-148.53;100.00;63986.66;5014001;28;20053;-74
2024/02/23 08:44:39;;;;;;;3.08;0.68;;;7.70;99.90;;;-148.53;100.00;63986.66;5017390;28;20500;-74
2024/02/23 08:47:04;;;;;;;2.22;0.57;;;7.70;99.90;;;-148.53;100.00;63986.66;5013756;28;20588;-74
2024/02/23 08:49:30;;;;;;;4.90;0.47;;;7.80;99.90;;;-148.53;100.00;63986.66;5016216;28;20132;-74
2024/02/23 08:51:58;;;;;;;1.70;0.45;;;7.90;99.90;;;-148.53;100.00;63986.66;5018229;28;20092;-75
2024/02/23 08:54:23;;;;;;;2.78;0.70;;;8.00;99.90;;;-148.53;100.00;63986.66;5032433;28;20038;-74
2024/02/23 08:56:49;;;;;;;3.38;0.60;;;7.90;99.90;;;-148.53;100.00;63986.66;5018701;28;20033;-75
2024/02/23 08:59:15;;;;;;;4.88;0.63;;;8.00;99.90;;;-148.53;100.00;63986.66;5013311;28;20490;-75
2024/02/23 09:01:41;;;;;;;2.50;0.52;;;8.00;99.90;;;-148.53;100.00;63986.66;5013967;28;20049;-75
2024/02/23 09:04:06;;;;;;;1.88;0.50;;;8.00;99.90;;;-148.53;100.00;63986.66;5028590;28;20050;-75
2024/02/23 09:06:35;;;;;;;3.28;0.57;;;8.10;99.90;;;-148.53;100.00;63986.66;5013640;28;20038;-76
2024/02/23 09:09:01;;;;;;;3.75;0.70;;;8.30;99.90;;;-148.53;100.00;63986.66;5019097;28;20037;-75
2024/02/23 09:11:26;;;;;;;3.67;0.50;;;8.40;99.90;;;-148.53;100.00;63986.66;5013697;28;20037;-75
2024/02/23 09:13:52;;;;;;;2.67;0.40;;;8.60;99.90;;;-148.53;100.00;63986.66;5033966;28;20049;-76
2024/02/23 09:16:18;;;;;;;2.70;0.43;;;8.90;99.90;;;-148.53;100.00;63986.66;5018248;28;20398;-75
2024/02/23 09:18:44;;;;;;;2.72;0.47;;;8.80;99.90;;;-148.53;100.00;63986.66;5039624;28;20037;-76
2024/02/23 09:21:10;;;;;;;2.53;0.47;;;8.80;99.90;;;-148.53;100.00;63986.66;5021955;28;20485;-75
2024/02/23 09:23:36;;;;;;;2.38;0.50;;;8.60;99.90;;;-148.53;100.00;63986.66;5035619;28;20050;-75
2024/02/23 09:26:01;;;;;;;5.05;0.73;;;8.50;99.90;;;-148.53;100.00;63986.66;5018815;28;20065;-76
2024/02/23 09:28:30;;;;;;;4.55;0.70;;;8.60;99.90;;;-148.53;100.00;63986.66;5018537;28;20042;-75
2024/02/23 09:30:56;;;;;;;4.25;0.60;;;8.80;99.90;;;-148.53;100.00;63986.66;5020243;28;20033;-76
2024/02/23 09:33:21;;;;;;;3.75;0.52;;;9.00;99.90;;;-148.53;100.00;63986.66;5019603;28;20045;-75
2024/02/23 09:35:47;;;;;;;4.05;0.60;;;9.40;99.90;;;-148.53;100.00;63986.66;5017058;28;20490;-76
2024/02/23 09:38:13;;;;;;;4.45;0.60;;;9.60;99.90;;;-148.53;100.00;63986.66;5017730;28;20034;-75
2024/02/23 09:40:39;;;;;;;5.57;0.50;;;9.30;99.90;;;-148.53;100.00;63986.66;5034578;28;20451;-76
2024/02/23 09:43:08;;;;;;;5.35;0.60;;;9.30;99.90;;;-148.53;100.00;63986.66;5013024;28;20133;-77
2024/02/23 09:45:34;;;;;;;1.63;0.30;;;9.40;99.90;;;-148.53;100.00;63986.66;5018820;28;20042;-77
2024/02/23 09:48:03;;;;;;;2.15;0.70;;;9.50;99.90;;;-148.53;100.00;63986.66;5013013;28;20374;-76
2024/02/23 09:50:30;;;;;;;3.00;0.50;;;9.50;99.90;;;-148.53;100.00;63986.66;5024243;28;20459;-77
2024/02/23 09:52:58;;;;;;;2.58;0.60;;;9.40;99.90;;;-148.53;100.00;63986.66;5035127;28;20109;-77
2024/02/23 09:55:24;;;;;;;3.45;0.57;;;9.40;99.90;;;-148.53;100.00;63986.66;5025580;28;20045;-79
2024/02/23 09:57:57;;;;;;;2.00;0.30;;;9.80;99.90;;;-148.53;100.00;63986.66;5014512;28;20246;-77
2024/02/23 10:00:23;;;;;;;1.00;0.28;;;9.60;99.90;;;-148.53;100.00;63986.66;5014481;28;20114;-78
2024/02/23 10:02:50;;;;;;;2.00;0.40;;;9.80;99.90;;;-148.53;100.00;63986.66;5014477;28;20513;-78